Time;durP1;ratioP1;P1;durP2;ratioP2;P2;SDS_P1;SDS_P2;PMS_P1;PMS_P2;Temp;Humidity;BMP_temperature;BMP_pressure;BME280_temperature;BME280_humidity;BME280_pressure;Samples;Min_cycle;Max_cycle;Signal;HPM_P1;HPM_P2
2022/08/31 00:05:40;;;;;;;5.47;4.82;;;;;;;20.36;37.04;96696.66;6312041;28;20070;-60
2022/08/31 00:08:42;;;;;;;5.30;3.88;;;;;;;20.38;37.20;96694.66;6321714;28;20051;-59
2022/08/31 00:11:44;;;;;;;7.05;5.18;;;;;;;20.37;37.08;96692.13;6317235;28;21566;-59
2022/08/31 00:14:46;;;;;;;5.53;4.75;;;;;;;20.43;36.59;96696.81;6316275;28;20047;-59
2022/08/31 00:17:49;;;;;;;4.25;3.85;;;;;;;20.25;37.09;96688.13;6326696;28;20052;-59
2022/08/31 00:20:57;;;;;;;8.18;4.03;;;;;;;20.19;36.93;96687.78;6320779;28;20413;-60
2022/08/31 00:23:58;;;;;;;4.97;3.75;;;;;;;20.30;36.75;96685.78;6318628;28;20196;-60
2022/08/31 00:27:00;;;;;;;6.18;4.72;;;;;;;20.23;36.56;96679.44;6318930;28;20052;-60
2022/08/31 00:30:06;;;;;;;7.35;3.83;;;;;;;20.33;36.52;96685.47;6318226;28;20032;-60
2022/08/31 00:33:10;;;;;;;7.90;4.30;;;;;;;20.27;36.64;96680.75;6321167;28;20040;-60
2022/08/31 00:36:12;;;;;;;6.72;4.10;;;;;;;20.30;36.52;96677.78;6320792;28;20142;-60
2022/08/31 00:39:14;;;;;;;4.80;4.30;;;;;;;20.21;36.41;96671.56;6320668;28;20065;-60
2022/08/31 00:42:17;;;;;;;6.15;4.18;;;;;;;20.15;36.72;96665.03;6320799;28;20040;-60
2022/08/31 00:45:22;;;;;;;6.07;4.22;;;;;;;20.14;36.81;96666.06;6316006;28;20536;-60
2022/08/31 00:48:26;;;;;;;4.80;3.65;;;;;;;19.97;37.38;96669.69;6321328;28;20459;-60
2022/08/31 00:51:31;;;;;;;7.75;3.50;;;;;;;19.95;37.18;96666.34;6317820;28;20052;-60
2022/08/31 00:54:51;;;;;;;4.80;4.30;;;;;;;19.99;36.94;96665.03;6312426;28;20150;-60
2022/08/31 00:57:58;;;;;;;4.80;2.97;;;;;;;20.07;37.31;96670.41;6312409;28;20228;-60
2022/08/31 01:01:05;;;;;;;3.92;3.50;;;;;;;19.99;37.58;96670.38;6315309;28;20182;-60
2022/08/31 01:04:10;;;;;;;4.60;3.38;;;;;;;19.97;37.22;96664.34;6314696;28;20035;-60
2022/08/31 01:07:14;;;;;;;6.47;3.38;;;;;;;19.97;37.71;96664.34;6318244;28;20514;-60
2022/08/31 01:10:18;;;;;;;5.35;4.28;;;;;;;19.97;37.03;96669.69;6319698;28;20058;-60
2022/08/31 01:13:22;;;;;;;4.95;2.45;;;;;;;19.85;37.38;96665.66;6317997;28;20051;-60
2022/08/31 01:16:34;;;;;;;6.55;3.95;;;;;;;19.68;37.62;96670.09;6319424;28;20106;-62
2022/08/31 01:19:45;;;;;;;5.32;3.95;;;;;;;19.78;37.88;96669.97;6312161;28;20790;-59
2022/08/31 01:22:52;;;;;;;6.70;3.55;;;;;;;19.71;37.57;96665.28;6318766;28;20185;-60
2022/08/31 01:25:56;;;;;;;4.57;3.70;;;;;;;19.55;37.98;96664.34;6319553;28;20205;-60
2022/08/31 01:29:03;;;;;;;4.68;3.40;;;;;;;19.48;38.25;96665.00;6319418;28;20133;-61
2022/08/31 01:32:06;;;;;;;4.85;3.65;;;;;;;19.42;38.59;96660.28;6311702;28;20051;-61
2022/08/31 01:35:08;;;;;;;7.03;4.53;;;;;;;19.59;38.18;96655.88;6320068;28;20192;-61
2022/08/31 01:38:12;;;;;;;5.40;4.05;;;;;;;19.51;38.23;96658.50;6313924;28;20062;-60
2022/08/31 01:41:13;;;;;;;3.92;3.53;;;;;;;19.27;38.67;96654.69;6318465;28;20496;-59
2022/08/31 01:44:22;;;;;;;6.22;3.38;;;;;;;19.17;38.96;96651.34;6319031;28;20491;-59
2022/08/31 01:47:24;;;;;;;6.10;4.25;;;;;;;19.05;39.09;96648.09;6319407;28;20056;-60
2022/08/31 01:50:29;;;;;;;6.72;3.38;;;;;;;19.08;38.96;96646.94;6315299;28;20114;-61
2022/08/31 01:53:33;;;;;;;7.53;3.58;;;;;;;19.06;39.06;96648.94;6319473;28;20502;-60
2022/08/31 01:56:39;;;;;;;5.32;3.47;;;;;;;19.03;38.99;96649.25;6311935;28;20048;-60
2022/08/31 01:59:41;;;;;;;4.40;3.17;;;;;;;18.99;39.03;96653.22;6312346;27;21187;-59
2022/08/31 02:02:45;;;;;;;6.30;3.70;;;;;;;19.01;39.14;96640.56;6315412;28;20177;-59
2022/08/31 02:05:47;;;;;;;4.78;3.28;;;;;;;18.99;39.18;96653.22;6319179;28;20071;-59
2022/08/31 02:08:49;;;;;;;5.70;4.07;;;;;;;19.03;39.17;96644.75;6320751;28;20138;-60
2022/08/31 02:11:53;;;;;;;6.18;5.00;;;;;;;19.12;38.83;96642.97;6314258;28;20056;-60
2022/08/31 02:14:55;;;;;;;7.25;5.13;;;;;;;19.20;39.16;96645.69;6313605;28;20051;-59
2022/08/31 02:18:01;;;;;;;7.05;3.72;;;;;;;19.05;39.57;96641.91;6317751;28;20181;-61
2022/08/31 02:21:03;;;;;;;6.90;3.88;;;;;;;19.07;39.07;96629.25;6318308;28;20135;-60
2022/08/31 02:24:06;;;;;;;7.15;4.82;;;;;;;19.12;39.40;96628.78;6317699;28;20048;-60
2022/08/31 02:27:08;;;;;;;7.88;3.92;;;;;;;19.24;39.24;96631.00;6317413;27;20150;-61
2022/08/31 02:30:17;;;;;;;5.32;3.70;;;;;;;19.29;39.29;96627.88;6305725;28;20051;-63
2022/08/31 02:33:24;;;;;;;8.65;3.78;;;;;;;19.25;39.44;96631.88;6317116;28;20502;-59
2022/08/31 02:36:30;;;;;;;7.82;4.18;;;;;;;19.28;39.42;96624.38;6316476;28;20043;-60
2022/08/31 02:39:34;;;;;;;6.13;4.18;;;;;;;19.09;39.58;96597.94;6316198;28;20434;-60
2022/08/31 02:42:38;;;;;;;8.32;4.75;;;;;;;19.33;39.38;96617.72;6317891;28;20063;-60
2022/08/31 02:45:42;;;;;;;7.30;4.00;;;;;;;19.42;39.28;96616.75;6316250;28;20059;-60
2022/08/31 02:48:44;;;;;;;7.15;4.80;;;;;;;19.70;39.03;96612.03;6309854;28;20407;-59
2022/08/31 02:51:51;;;;;;;9.25;4.43;;;;;;;20.07;38.30;96616.13;6313711;28;20057;-61
2022/08/31 02:54:55;;;;;;;6.55;4.53;;;;;;;20.35;37.58;96608.63;6317975;28;20059;-60
2022/08/31 02:57:56;;;;;;;7.78;5.03;;;;;;;20.49;37.66;96610.63;6311768;28;20048;-61
2022/08/31 03:01:00;;;;;;;7.38;5.75;;;;;;;20.68;37.36;96614.00;6305943;28;20048;-60
2022/08/31 03:04:05;;;;;;;10.40;4.82;;;;;;;20.80;37.50;96613.47;6318842;28;20182;-60
2022/08/31 03:07:07;;;;;;;10.43;4.88;;;;;;;20.97;37.08;96603.56;6314368;28;20048;-60
2022/08/31 03:10:12;;;;;;;8.27;5.30;;;;;;;21.10;37.08;96607.56;6317978;28;20036;-61
2022/08/31 03:13:14;;;;;;;5.93;4.40;;;;;;;21.20;37.08;96613.53;6317306;28;20055;-61
2022/08/31 03:16:18;;;;;;;7.88;4.60;;;;;;;21.22;37.35;96608.84;6315684;28;20063;-61
2022/08/31 03:19:22;;;;;;;7.85;4.63;;;;;;;21.25;37.01;96605.84;6314360;28;20051;-60
2022/08/31 03:22:26;;;;;;;7.90;3.97;;;;;;;21.21;37.27;96600.00;6308282;28;20131;-60
2022/08/31 03:25:31;;;;;;;7.93;4.47;;;;;;;21.24;37.14;96599.66;6310605;28;20044;-60
2022/08/31 03:28:37;;;;;;;5.80;3.88;;;;;;;21.29;36.96;96607.16;6315702;28;20243;-60
2022/08/31 03:31:39;;;;;;;9.13;5.00;;;;;;;21.45;36.46;96588.38;6305255;28;20044;-60
2022/08/31 03:34:43;;;;;;;6.63;3.90;;;;;;;21.55;36.27;96595.38;6313950;28;20097;-60
2022/08/31 03:37:45;;;;;;;6.03;4.00;;;;;;;21.55;36.67;96595.38;6316947;28;20044;-60
2022/08/31 03:40:52;;;;;;;7.47;4.10;;;;;;;21.60;36.90;96584.97;6315446;28;20378;-60
2022/08/31 03:43:56;;;;;;;10.18;3.95;;;;;;;21.73;36.91;96594.09;6317825;28;20530;-61
2022/08/31 03:46:58;;;;;;;9.25;5.22;;;;;;;21.87;36.57;96589.81;6325160;28;20076;-61
2022/08/31 03:50:02;;;;;;;7.50;4.18;;;;;;;22.01;36.25;96585.56;6315996;28;20434;-60
2022/08/31 03:53:06;;;;;;;10.70;4.38;;;;;;;22.18;35.70;96580.94;6317315;28;20047;-61
2022/08/31 03:56:10;;;;;;;8.70;5.70;;;;;;;22.34;35.25;96594.22;6313912;28;20060;-60
2022/08/31 03:59:15;;;;;;;9.00;5.30;;;;;;;22.54;34.67;96585.69;6303832;28;20582;-59
2022/08/31 04:02:19;;;;;;;7.07;4.63;;;;;;;22.61;34.15;96587.44;6308945;28;20033;-60
2022/08/31 04:05:21;;;;;;;8.52;5.30;;;;;;;22.77;33.97;96583.78;6313276;28;20123;-60
2022/08/31 04:08:22;;;;;;;7.60;5.15;;;;;;;22.93;33.53;96577.44;6315459;28;20043;-60
2022/08/31 04:11:26;;;;;;;11.20;5.88;;;;;;;23.16;33.04;96582.72;6315218;28;20085;-61
2022/08/31 04:14:27;;;;;;;13.55;8.82;;;;;;;23.38;32.41;96582.78;6314715;28;20048;-60
2022/08/31 04:17:32;;;;;;;15.10;8.30;;;;;;;23.64;31.97;96577.78;6315422;28;20060;-60
2022/08/31 04:20:35;;;;;;;8.80;6.22;;;;;;;24.01;31.34;96592.06;6316180;28;20502;-60
2022/08/31 04:23:39;;;;;;;8.32;5.28;;;;;;;24.36;30.89;96593.00;6316206;28;20507;-60
2022/08/31 04:26:45;;;;;;;7.88;5.15;;;;;;;24.82;30.39;96586.38;6312416;28;20048;-61
2022/08/31 04:29:46;;;;;;;7.45;4.97;;;;;;;25.19;29.95;96577.13;6311385;28;20048;-60
2022/08/31 04:32:51;;;;;;;6.80;4.43;;;;;;;25.41;29.77;96585.94;6314196;28;20113;-60
2022/08/31 04:35:53;;;;;;;8.23;4.75;;;;;;;25.51;29.13;96581.03;6311978;28;20166;-61
2022/08/31 04:38:59;;;;;;;7.22;5.25;;;;;;;25.60;29.12;96584.38;6305904;28;20045;-60
2022/08/31 04:42:04;;;;;;;6.45;4.60;;;;;;;26.04;28.63;96584.94;6314026;28;20182;-60
2022/08/31 04:45:10;;;;;;;10.27;5.07;;;;;;;26.39;28.16;96578.38;6313911;28;20089;-60
2022/08/31 04:48:11;;;;;;;6.32;4.47;;;;;;;26.63;27.38;96578.81;6316131;28;20419;-60
2022/08/31 04:51:20;;;;;;;6.13;4.43;;;;;;;26.76;26.93;96573.44;6313578;28;20134;-60
2022/08/31 04:54:21;;;;;;;7.47;4.57;;;;;;;27.06;26.02;96571.13;6312526;28;20143;-60
2022/08/31 04:57:26;;;;;;;7.85;4.30;;;;;;;27.41;25.35;96570.03;6320441;28;20110;-60
2022/08/31 05:00:29;;;;;;;7.50;4.57;;;;;;;27.77;25.14;96570.28;6321124;28;20043;-60
2022/08/31 05:03:31;;;;;;;4.82;4.18;;;;;;;28.17;24.89;96567.38;6306610;28;20075;-60
2022/08/31 05:06:36;;;;;;;13.82;6.55;;;;;;;28.48;24.77;96565.75;6318378;28;20076;-61
2022/08/31 05:09:37;;;;;;;10.05;5.88;;;;;;;28.61;24.72;96565.63;6315292;28;20047;-61
2022/08/31 05:12:43;;;;;;;8.20;4.93;;;;;;;28.78;24.35;96575.91;6316313;28;20607;-61
2022/08/31 05:15:44;;;;;;;5.82;4.10;;;;;;;28.92;24.37;96572.00;6321361;28;20062;-60
2022/08/31 05:18:50;;;;;;;8.18;4.70;;;;;;;29.20;24.06;96574.28;6319507;28;20044;-60
2022/08/31 05:21:55;;;;;;;6.03;3.58;;;;;;;30.37;22.85;96567.81;6312014;28;20055;-61
2022/08/31 05:24:56;;;;;;;7.72;4.20;;;;;;;33.75;18.94;96570.56;6319829;28;20044;-61
2022/08/31 05:27:58;;;;;;;5.20;3.45;;;;;;;36.77;16.18;96578.00;6318759;28;20075;-61
2022/08/31 05:31:00;;;;;;;6.10;3.65;;;;;;;38.66;14.58;96576.59;6318549;28;20055;-61
2022/08/31 05:34:02;;;;;;;;;;;;;;;41.49;13.12;96584.56;6316441;28;20040;-60
2022/08/31 05:37:06;;;;;;;5.30;3.13;;;;;;;42.51;11.35;96570.53;6319073;28;19927;-60
2022/08/31 05:40:09;;;;;;;6.82;3.35;;;;;;;43.65;10.59;96561.84;6318593;28;20056;-60
2022/08/31 05:43:16;;;;;;;2.65;2.20;;;;;;;45.54;9.74;96573.69;6319520;28;20104;-61
2022/08/31 05:46:18;;;;;;;3.05;2.50;;;;;;;47.39;8.55;96559.69;6316967;28;20055;-62
2022/08/31 05:49:20;;;;;;;4.93;2.60;;;;;;;47.60;7.62;96565.19;6319163;28;20655;-62
2022/08/31 05:52:22;;;;;;;5.20;2.45;;;;;;;45.97;8.49;96559.56;6319509;28;20434;-66
2022/08/31 05:55:24;;;;;;;2.75;2.03;;;;;;;45.27;8.46;96550.72;6319291;28;20506;-61
2022/08/31 05:58:33;;;;;;;4.93;2.17;;;;;;;44.42;9.15;96548.53;6319224;28;20040;-60
2022/08/31 06:01:38;;;;;;;3.53;1.83;;;;;;;44.85;8.73;96550.47;6317754;28;20548;-60
2022/08/31 06:04:42;;;;;;;2.70;1.75;;;;;;;46.09;8.01;96547.72;6315142;28;20043;-61
2022/08/31 06:07:45;;;;;;;5.15;2.28;;;;;;;45.21;8.37;96540.91;6313021;28;20035;-61
2022/08/31 06:10:47;;;;;;;5.70;2.17;;;;;;;44.07;9.18;96540.13;6320238;28;20077;-61
2022/08/31 06:13:53;;;;;;;4.45;2.05;;;;;;;43.93;8.71;96536.66;6318608;28;20043;-61
2022/08/31 06:16:58;;;;;;;2.97;1.75;;;;;;;41.90;10.00;96522.97;6304215;28;20067;-61
2022/08/31 06:20:09;;;;;;;3.78;2.15;;;;;;;41.68;9.91;96523.69;6319188;28;20526;-61
2022/08/31 06:23:11;;;;;;;5.68;2.50;;;;;;;40.55;10.62;96516.59;6317011;28;20572;-60
2022/08/31 06:26:14;;;;;;;6.53;2.30;;;;;;;41.56;10.12;96528.09;6314661;28;20040;-61
2022/08/31 06:29:16;;;;;;;4.80;1.90;;;;;;;41.74;10.17;96521.63;6314228;28;20068;-61
2022/08/31 06:32:20;;;;;;;5.70;2.00;;;;;;;41.84;9.96;96518.66;6310954;28;20529;-60
2022/08/31 06:35:24;;;;;;;8.10;2.55;;;;;;;42.92;9.49;96508.69;6311363;28;20036;-60
2022/08/31 06:38:26;;;;;;;4.03;2.22;;;;;;;42.95;9.41;96510.03;6311012;28;20029;-60
2022/08/31 06:41:31;;;;;;;7.00;2.58;;;;;;;43.80;8.75;96509.91;6316451;28;20039;-61
2022/08/31 06:44:33;;;;;;;3.78;2.00;;;;;;;44.93;8.08;96519.09;6314710;28;20043;-61
2022/08/31 06:47:37;;;;;;;4.78;2.17;;;;;;;43.83;8.58;96509.25;6316917;28;20534;-61
2022/08/31 06:50:40;;;;;;;4.18;1.98;;;;;;;42.27;8.96;96518.28;6317784;28;20051;-61
2022/08/31 06:53:41;;;;;;;3.30;1.80;;;;;;;41.49;9.78;96498.94;6311185;28;20078;-62
2022/08/31 06:56:43;;;;;;;2.75;2.40;;;;;;;40.26;10.67;96491.19;6307941;28;20036;-61
2022/08/31 06:59:50;;;;;;;4.55;2.63;;;;;;;38.73;11.63;96519.34;6309078;28;20530;-61
2022/08/31 07:02:51;;;;;;;5.30;3.17;;;;;;;36.88;13.19;96504.00;6313798;28;20072;-60
2022/08/31 07:05:56;;;;;;;3.38;2.63;;;;;;;35.82;14.36;96500.88;6316021;28;20055;-61
2022/08/31 07:09:02;;;;;;;7.55;3.75;;;;;;;35.13;15.20;96490.97;6314415;28;20052;-60
2022/08/31 07:12:05;;;;;;;5.93;3.25;;;;;;;34.94;15.24;96504.25;6315935;28;20044;-61
2022/08/31 07:15:06;;;;;;;4.70;3.20;;;;;;;34.95;15.30;96489.50;6311859;28;20054;-60
2022/08/31 07:18:14;;;;;;;4.55;2.90;;;;;;;34.79;15.51;96491.28;6310136;28;21037;-60
2022/08/31 07:21:41;;;;;;;6.03;3.40;;;;;;;34.76;15.43;96481.69;6312526;28;20376;-61
2022/08/31 07:24:42;;;;;;;6.95;4.25;;;;;;;34.07;16.17;96489.88;6317066;28;20035;-62
2022/08/31 07:27:54;;;;;;;4.60;3.42;;;;;;;33.68;16.24;96479.06;6315556;28;20032;-60
2022/08/31 07:30:55;;;;;;;6.05;3.55;;;;;;;33.15;17.47;96483.28;6312610;28;21241;-62
2022/08/31 07:33:58;;;;;;;6.68;3.08;;;;;;;33.06;16.99;96488.34;6312559;28;20040;-61
2022/08/31 07:43:42;;;;;;;5.50;3.05;;;;;;;33.46;16.65;96499.00;6314484;28;20055;-62
2022/08/31 07:46:48;;;;;;;6.78;3.55;;;;;;;33.81;16.14;96486.84;6314134;28;20506;-61
2022/08/31 07:49:53;;;;;;;4.93;3.40;;;;;;;34.20;15.78;96494.91;6315459;28;20553;-61
2022/08/31 07:53:01;;;;;;;3.53;2.92;;;;;;;34.33;15.30;96494.47;6312193;28;20040;-61
2022/08/31 07:56:03;;;;;;;5.88;3.15;;;;;;;34.68;15.11;96514.16;6315658;28;20079;-61
2022/08/31 07:59:08;;;;;;;6.32;3.08;;;;;;;34.46;15.23;96522.44;6315230;28;20035;-61
2022/08/31 08:02:15;;;;;;;8.75;3.05;;;;;;;34.38;15.36;96505.44;6312458;28;20123;-61
2022/08/31 08:05:24;;;;;;;6.50;2.85;;;;;;;34.63;14.86;96512.22;6316172;28;20085;-61
2022/08/31 08:08:26;;;;;;;9.50;2.40;;;;;;;34.22;15.61;96498.19;6312176;28;20048;-61
2022/08/31 08:11:34;;;;;;;5.32;3.22;;;;;;;34.24;15.62;96495.22;6315340;28;20123;-61
2022/08/31 08:14:38;;;;;;;6.07;2.97;;;;;;;33.92;15.45;96493.25;6316157;28;20089;-61
2022/08/31 08:17:40;;;;;;;8.15;3.47;;;;;;;34.37;14.70;96495.63;6315568;28;20043;-61
2022/08/31 08:20:41;;;;;;;4.15;2.88;;;;;;;35.27;14.43;96501.19;6316412;28;20048;-61
2022/08/31 08:23:45;;;;;;;7.20;2.97;;;;;;;35.90;13.78;96490.22;6317142;28;20037;-61
2022/08/31 08:26:49;;;;;;;5.05;2.38;;;;;;;38.97;11.70;96524.09;6314423;28;20522;-61
2022/08/31 08:29:54;;;;;;;5.88;2.72;;;;;;;41.11;10.42;96505.75;6315928;28;20123;-61
2022/08/31 08:33:00;;;;;;;5.95;2.30;;;;;;;42.57;9.55;96496.56;6317991;28;20028;-61
2022/08/31 08:36:06;;;;;;;4.07;2.63;;;;;;;42.61;8.82;96503.91;6315566;28;20514;-62
2022/08/31 08:39:12;;;;;;;4.85;2.13;;;;;;;41.19;9.92;96516.09;6319898;28;20043;-60
2022/08/31 08:42:19;;;;;;;4.00;1.95;;;;;;;39.95;10.22;96491.59;6319453;28;20263;-61
2022/08/31 08:45:24;;;;;;;4.80;2.10;;;;;;;38.63;11.55;96506.50;6322368;28;20130;-60
2022/08/31 08:48:31;;;;;;;2.13;1.40;;;;;;;38.17;11.41;96482.09;6320387;28;20035;-61
2022/08/31 08:51:38;;;;;;;2.92;1.75;;;;;;;38.74;11.50;96485.22;6320910;28;20075;-61
2022/08/31 08:54:44;;;;;;;5.18;1.90;;;;;;;38.93;11.14;96482.59;6317803;28;20470;-61
2022/08/31 08:57:50;;;;;;;5.93;2.22;;;;;;;38.41;10.73;96478.66;6318328;28;20055;-60
2022/08/31 09:00:55;;;;;;;3.75;1.80;;;;;;;37.29;11.49;96467.16;6304005;28;20175;-61
2022/08/31 09:04:38;;;;;;;3.90;1.73;;;;;;;36.75;11.79;96467.00;6309950;28;20045;-60
2022/08/31 09:08:09;;;;;;;2.33;1.83;;;;;;;36.58;12.11;96470.88;6315856;28;20140;-61
2022/08/31 09:11:16;;;;;;;;;;;;;;;36.79;12.41;96479.88;6320880;28;20044;-61
2022/08/31 09:14:48;;;;;;;5.95;2.42;;;;;;;37.44;11.74;96479.16;6320330;28;20387;-61
2022/08/31 09:18:13;;;;;;;5.38;2.10;;;;;;;37.92;11.33;96477.56;6303043;28;20135;-60
2022/08/31 09:21:42;;;;;;;4.07;1.55;;;;;;;38.40;10.45;96475.09;6305685;28;20097;-61
2022/08/31 09:24:43;;;;;;;3.22;1.77;;;;;;;37.36;11.44;96455.06;6320177;28;20067;-60
2022/08/31 09:27:56;;;;;;;3.33;1.58;;;;;;;37.10;11.61;96484.50;6308021;28;20131;-60
2022/08/31 09:30:57;;;;;;;6.13;2.13;;;;;;;36.78;11.73;96466.47;6296895;28;20052;-60
2022/08/31 09:34:01;;;;;;;5.77;1.93;;;;;;;36.77;12.07;96464.78;6311705;28;20395;-60
2022/08/31 09:37:24;;;;;;;5.28;2.38;;;;;;;36.45;12.08;96462.34;6313962;28;20198;-60
2022/08/31 09:40:46;;;;;;;6.63;2.30;;;;;;;37.17;11.98;96461.19;6315861;28;20562;-64
2022/08/31 09:43:48;;;;;;;4.30;1.90;;;;;;;36.62;11.99;96469.19;6302847;28;20052;-63
2022/08/31 09:46:59;;;;;;;7.10;3.47;;;;;;;35.98;12.32;96469.66;6306288;28;20047;-65
2022/08/31 09:50:01;;;;;;;8.20;2.60;;;;;;;35.67;12.14;96446.91;6319094;28;20707;-64
2022/08/31 09:56:53;;;;;;;6.38;2.75;;;;;;;36.76;11.26;96474.13;6320578;28;20040;-69
2022/08/31 09:59:58;;;;;;;4.20;1.63;;;;;;;37.57;11.27;96466.78;6312242;28;20040;-69
2022/08/31 10:03:27;;;;;;;10.07;2.58;;;;;;;38.75;10.70;96448.34;6299146;28;20187;-68
2022/08/31 10:06:49;;;;;;;6.00;2.10;;;;;;;39.79;10.26;96466.19;6314159;28;20483;-69
2022/08/31 10:09:57;;;;;;;;;;;;;;;40.88;9.47;96472.50;6304098;28;20044;-69
2022/08/31 10:13:15;;;;;;;4.60;2.58;;;;;;;38.77;10.61;96472.84;6312220;28;20371;-68
2022/08/31 10:16:29;;;;;;;4.95;1.70;;;;;;;37.16;11.42;96464.19;6314398;28;20041;-68
2022/08/31 10:20:07;;;;;;;4.75;2.30;;;;;;;35.89;12.72;96474.03;6312526;28;20139;-70
2022/08/31 10:23:34;;;;;;;3.30;1.70;;;;;;;35.62;12.97;96455.94;6293703;28;20414;-68
2022/08/31 10:26:48;;;;;;;6.00;1.67;;;;;;;36.62;12.63;96460.16;6318012;28;20063;-68
2022/08/31 10:29:55;;;;;;;3.80;1.98;;;;;;;36.22;12.48;96436.34;6306517;28;20063;-67
2022/08/31 10:33:15;;;;;;;6.13;3.08;;;;;;;37.33;12.08;96472.91;6305620;28;20048;-68
2022/08/31 10:36:24;;;;;;;3.95;2.28;;;;;;;37.55;12.00;96469.00;6317173;28;20047;-67
2022/08/31 10:39:43;;;;;;;6.07;2.08;;;;;;;36.58;12.26;96461.84;6320194;28;20048;-67
2022/08/31 10:43:12;;;;;;;3.95;1.58;;;;;;;35.02;13.28;96446.34;6317021;28;20063;-67
2022/08/31 10:46:20;;;;;;;5.93;1.70;;;;;;;34.23;13.92;96445.25;6298590;28;20197;-67
2022/08/31 10:49:22;;;;;;;7.20;2.17;;;;;;;33.90;14.13;96446.28;6311574;28;20131;-66
2022/08/31 10:52:54;;;;;;;5.00;1.60;;;;;;;33.71;14.40;96437.63;6318333;28;20086;-67
2022/08/31 10:56:38;;;;;;;4.38;1.60;;;;;;;33.48;14.58;96452.34;6307518;28;20065;-68
2022/08/31 10:59:55;;;;;;;4.18;1.55;;;;;;;33.40;14.04;96426.34;6217195;28;20042;-64
2022/08/31 11:03:17;;;;;;;2.85;1.58;;;;;;;33.38;14.14;96444.88;6238362;28;20053;-64
2022/08/31 11:06:48;;;;;;;4.10;1.30;;;;;;;35.10;12.64;96432.16;6304004;28;20143;-64
2022/08/31 11:10:11;;;;;;;2.75;1.40;;;;;;;36.77;11.67;96456.56;6264410;28;20052;-63
2022/08/31 11:13:49;;;;;;;3.10;1.35;;;;;;;37.52;11.08;96452.00;6303923;28;20044;-66
2022/08/31 11:17:09;;;;;;;2.50;1.40;;;;;;;37.63;10.52;96482.16;6309382;28;20048;-63
2022/08/31 11:20:28;;;;;;;8.55;1.50;;;;;;;37.34;10.98;96441.63;6308165;28;20138;-63
2022/08/31 11:23:59;;;;;;;3.08;1.30;;;;;;;37.39;11.21;96438.03;6319564;28;20158;-62
2022/08/31 11:27:10;;;;;;;5.28;1.30;;;;;;;37.23;10.81;96451.00;6312097;28;20059;-62
2022/08/31 11:30:31;;;;;;;2.55;1.10;;;;;;;37.29;11.04;96461.66;6294930;28;20504;-62
2022/08/31 11:33:34;;;;;;;3.30;1.40;;;;;;;37.14;11.36;96439.75;6310166;28;20036;-72
2022/08/31 11:36:59;;;;;;;2.92;0.70;;;;;;;37.22;10.67;96427.41;6307536;28;20171;-65
2022/08/31 11:40:58;;;;;;;1.77;1.25;;;;;;;37.43;10.92;96439.94;6315926;28;20406;-65
2022/08/31 11:44:07;;;;;;;4.63;1.35;;;;;;;36.84;11.48;96432.44;6315163;28;20044;-66
2022/08/31 11:47:33;;;;;;;3.90;1.30;;;;;;;36.26;11.60;96435.50;6305975;28;20048;-66
2022/08/31 11:50:53;;;;;;;2.28;1.42;;;;;;;35.86;12.52;96439.00;6315715;28;20052;-66
2022/08/31 11:53:55;;;;;;;4.05;1.58;;;;;;;35.62;12.27;96417.63;6311261;28;20052;-67
2022/08/31 11:56:57;;;;;;;4.10;1.77;;;;;;;35.86;12.52;96422.56;6317424;28;20121;-67
2022/08/31 11:59:59;;;;;;;4.23;1.57;;;;;;;35.94;12.54;96435.72;6315392;28;20499;-65
2022/08/31 12:03:08;;;;;;;2.47;1.40;;;;;;;35.78;12.51;96425.84;6309447;28;20045;-66
2022/08/31 12:06:34;;;;;;;5.30;1.80;;;;;;;35.16;13.43;96431.13;6301704;28;20521;-65
2022/08/31 12:10:13;;;;;;;3.38;2.05;;;;;;;34.77;13.76;96417.78;6307973;28;20537;-65
2022/08/31 12:13:52;;;;;;;5.13;1.98;;;;;;;35.00;13.61;96415.72;6301800;28;20574;-66
2022/08/31 12:17:19;;;;;;;3.00;1.50;;;;;;;34.63;13.75;96416.59;6300157;28;20083;-66
2022/08/31 12:24:07;;;;;;;3.38;1.60;;;;;;;34.36;14.07;96412.00;6321245;28;20063;-67
2022/08/31 12:27:39;;;;;;;3.45;1.75;;;;;;;34.38;14.46;96415.31;6314610;28;20044;-67
2022/08/31 12:30:50;;;;;;;2.70;1.60;;;;;;;34.34;14.33;96413.34;6309023;28;20513;-66
2022/08/31 12:34:10;;;;;;;5.45;3.03;;;;;;;34.35;14.31;96415.00;6298464;28;20059;-67
2022/08/31 12:37:28;;;;;;;6.57;2.17;;;;;;;34.38;14.35;96422.69;6305290;28;20190;-66
2022/08/31 12:40:55;;;;;;;4.40;1.90;;;;;;;34.43;13.92;96417.25;6322778;28;20547;-66
2022/08/31 12:44:01;;;;;;;4.90;1.67;;;;;;;34.17;13.61;96391.69;6310052;28;20142;-67
2022/08/31 12:47:07;;;;;;;3.00;1.20;;;;;;;33.99;14.09;96403.78;6312394;28;20119;-66
2022/08/31 12:50:32;;;;;;;4.10;1.65;;;;;;;33.98;14.24;96394.75;6316184;28;20051;-66
2022/08/31 12:53:55;;;;;;;2.28;1.65;;;;;;;33.97;14.46;96400.47;6317065;28;20540;-66
2022/08/31 12:57:11;;;;;;;6.00;1.85;;;;;;;34.01;14.41;96392.59;6319838;28;20044;-67
2022/08/31 13:00:43;;;;;;;4.43;1.45;;;;;;;34.05;14.40;96385.56;6320151;28;20136;-70
2022/08/31 13:03:52;;;;;;;5.55;1.40;;;;;;;33.89;14.50;96407.25;6314168;28;20613;-66
2022/08/31 13:06:53;;;;;;;1.77;1.20;;;;;;;33.75;14.23;96386.94;6316404;28;20058;-67
2022/08/31 13:10:08;;;;;;;3.35;1.30;;;;;;;33.59;14.52;96380.50;6314884;28;20032;-66
2022/08/31 13:13:21;;;;;;;5.50;1.25;;;;;;;33.36;14.82;96392.50;6303892;28;20051;-66
2022/08/31 13:16:23;;;;;;;3.28;1.88;;;;;;;33.15;14.85;96396.06;6312764;28;20036;-66
2022/08/31 13:19:33;;;;;;;5.45;1.70;;;;;;;33.02;15.19;96379.03;6306400;28;20035;-66
2022/08/31 13:22:42;;;;;;;4.97;2.40;;;;;;;32.77;15.30;96378.69;6320193;28;20454;-67
2022/08/31 13:25:57;;;;;;;4.28;2.42;;;;;;;32.38;15.60;96371.28;6314580;28;20048;-66
2022/08/31 13:29:03;;;;;;;4.40;2.00;;;;;;;32.12;15.56;96378.25;6317801;28;20132;-66
2022/08/31 13:32:05;;;;;;;5.70;2.42;;;;;;;31.96;16.21;96377.22;6318665;28;20047;-65
2022/08/31 13:35:14;;;;;;;2.83;1.65;;;;;;;31.90;16.07;96375.41;6305467;28;20135;-66
2022/08/31 13:38:27;;;;;;;3.38;1.98;;;;;;;31.67;16.44;96386.47;6305430;28;20048;-66
2022/08/31 13:41:34;;;;;;;4.05;1.70;;;;;;;31.48;16.65;96389.41;6296743;28;20128;-66
2022/08/31 13:44:41;;;;;;;5.85;2.58;;;;;;;31.40;16.39;96370.75;6308289;28;20079;-66
2022/08/31 13:48:01;;;;;;;3.92;2.00;;;;;;;31.19;17.03;96369.50;6325289;28;20040;-74
2022/08/31 13:51:15;;;;;;;5.32;3.15;;;;;;;31.11;16.91;96386.19;6306974;28;20032;-66
2022/08/31 13:54:32;;;;;;;3.60;2.35;;;;;;;30.98;17.58;96378.34;6317830;28;20052;-67
2022/08/31 13:57:40;;;;;;;4.60;1.83;;;;;;;30.72;17.33;96369.63;6317045;28;20047;-66
2022/08/31 14:00:42;;;;;;;3.05;2.13;;;;;;;30.55;17.54;96360.59;6319346;28;20519;-66
2022/08/31 14:03:58;;;;;;;2.70;1.45;;;;;;;30.60;17.87;96371.53;6320154;28;20048;-66
2022/08/31 14:07:02;;;;;;;5.82;2.33;;;;;;;30.51;18.05;96378.41;6316942;28;20406;-66
2022/08/31 14:10:18;;;;;;;4.38;2.00;;;;;;;30.39;18.17;96392.81;6299489;28;20063;-65
2022/08/31 14:13:23;;;;;;;5.72;2.58;;;;;;;30.19;18.62;96381.44;6315474;28;20101;-65
2022/08/31 14:16:33;;;;;;;5.95;2.50;;;;;;;29.99;19.00;96382.63;6319791;28;20518;-66
2022/08/31 14:19:37;;;;;;;4.90;2.53;;;;;;;29.89;18.53;96376.94;6295766;28;20059;-65
2022/08/31 14:22:44;;;;;;;2.45;1.75;;;;;;;29.70;19.25;96380.81;6296256;28;20040;-66
2022/08/31 14:25:46;;;;;;;6.97;2.45;;;;;;;29.37;19.40;96378.56;6314793;28;20052;-66
2022/08/31 14:28:54;;;;;;;2.58;1.50;;;;;;;29.17;19.91;96378.84;6315889;28;20066;-67
2022/08/31 14:32:03;;;;;;;6.47;2.13;;;;;;;29.04;19.74;96388.75;6319275;28;20117;-68
2022/08/31 14:35:09;;;;;;;6.93;3.95;;;;;;;28.94;20.06;96380.34;6320142;28;20053;-67
2022/08/31 14:38:14;;;;;;;4.00;3.10;;;;;;;28.93;19.69;96372.44;6320514;28;20048;-66
2022/08/31 14:41:17;;;;;;;5.28;2.60;;;;;;;28.69;20.29;96379.59;6298413;28;20052;-67
2022/08/31 14:44:27;;;;;;;5.10;2.70;;;;;;;28.51;20.39;96381.25;6306303;28;20475;-67
2022/08/31 14:47:33;;;;;;;8.70;4.03;;;;;;;28.43;20.46;96390.50;6319823;28;20059;-66
2022/08/31 14:50:35;;;;;;;10.45;5.93;;;;;;;28.27;20.71;96384.78;6320131;28;20044;-68
2022/08/31 14:53:39;;;;;;;12.95;6.10;;;;;;;28.33;20.48;96378.50;6319768;28;20048;-66
2022/08/31 14:56:46;;;;;;;13.52;5.47;;;;;;;28.05;20.95;96393.31;6307284;28;20036;-67
2022/08/31 14:59:55;;;;;;;19.77;11.02;;;;;;;28.02;21.29;96392.94;6294181;28;20057;-67
2022/08/31 15:03:01;;;;;;;22.08;12.30;;;;;;;27.80;21.21;96400.59;6318403;28;20059;-67
2022/08/31 15:06:07;;;;;;;15.20;7.75;;;;;;;27.77;21.20;96397.28;6319557;28;20042;-67